createdAt,value
2018-03-29T00:00:28.100Z,104.95
2018-03-29T00:01:02.019Z,99.47
2018-03-29T00:01:35.882Z,106.57
2018-03-29T00:02:09.741Z,98.50
2018-03-29T00:02:43.718Z,97.97
2018-03-29T00:03:17.585Z,96.68
2018-03-29T00:03:51.447Z,104.07
2018-03-29T00:04:25.325Z,87.25
2018-03-29T00:04:59.189Z,100.75
2018-03-29T00:05:33.077Z,100.57
2018-03-29T00:06:06.933Z,92.28
2018-03-29T00:06:40.801Z,95.75
2018-03-29T00:07:14.708Z,104.12
2018-03-29T00:07:48.571Z,110.07
2018-03-29T00:08:22.449Z,106.18
2018-03-29T00:08:56.326Z,96.32
2018-03-29T00:09:30.209Z,99.20
2018-03-29T00:10:04.060Z,91.47
2018-03-29T00:10:37.931Z,94.65
2018-03-29T00:11:11.802Z,106.43
2018-03-29T00:11:45.930Z,106.35
2018-03-29T00:12:19.795Z,103.47
2018-03-29T00:12:53.664Z,103.95
2018-03-29T00:13:27.628Z,107.95
2018-03-29T00:14:01.545Z,103.70
2018-03-29T00:14:35.472Z,101.03
2018-03-29T00:15:09.277Z,94.10
2018-03-29T00:15:43.145Z,105.60
2018-03-29T00:16:17.005Z,95.18
2018-03-29T00:16:50.868Z,104.57
2018-03-29T00:17:24.762Z,99.68
2018-03-29T00:17:58.618Z,100.43
2018-03-29T00:18:32.772Z,96.97
2018-03-29T00:19:06.728Z,99.80
2018-03-29T00:19:40.588Z,95.15
2018-03-29T00:20:14.662Z,98.28
2018-03-29T00:20:48.542Z,102.38
2018-03-29T00:21:22.402Z,96.82
2018-03-29T00:21:56.351Z,95.40
2018-03-29T00:22:30.214Z,86.32
2018-03-29T00:23:04.080Z,91.57
2018-03-29T00:23:37.944Z,94.00
2018-03-29T00:24:11.801Z,108.25
2018-03-29T00:24:45.885Z,90.38
2018-03-29T00:25:19.772Z,95.82
2018-03-29T00:25:53.633Z,105.75
2018-03-29T00:26:27.612Z,105.43
2018-03-29T00:27:01.478Z,93.28
2018-03-29T00:27:35.612Z,101.47
2018-03-29T00:28:09.487Z,98.50
2018-03-29T00:28:43.327Z,103.95
2018-03-29T00:29:17.197Z,94.78
2018-03-29T00:29:51.090Z,97.47
2018-03-29T00:30:24.990Z,105.82
2018-03-29T00:30:59.084Z,101.07
2018-03-29T00:31:32.945Z,105.60
2018-03-29T00:32:06.979Z,86.70
2018-03-29T00:32:40.837Z,104.05
2018-03-29T00:33:14.875Z,108.80
2018-03-29T00:33:48.723Z,97.28
2018-03-29T00:34:22.781Z,107.15
2018-03-29T00:34:56.653Z,100.93
2018-03-29T00:35:30.657Z,94.95
2018-03-29T00:36:04.556Z,96.72
2018-03-29T00:36:38.584Z,100.38
2018-03-29T00:37:12.752Z,94.45
2018-03-29T00:37:46.596Z,101.15
2018-03-29T00:38:20.544Z,95.75
2018-03-29T00:38:54.546Z,101.50
2018-03-29T00:39:28.445Z,95.95
2018-03-29T00:40:02.322Z,81.93
2018-03-29T00:40:36.361Z,105.95
2018-03-29T00:41:10.218Z,87.80
2018-03-29T00:41:44.116Z,100.90
2018-03-29T00:42:17.975Z,93.62
2018-03-29T00:42:51.840Z,97.93
2018-03-29T00:43:25.705Z,97.68
2018-03-29T00:43:59.707Z,92.78
2018-03-29T00:44:34.457Z,104.85
2018-03-29T00:45:08.527Z,96.63
2018-03-29T00:45:42.398Z,95.40
2018-03-29T00:46:16.266Z,101.12
2018-03-29T00:46:50.219Z,97.00
2018-03-29T00:47:24.079Z,95.32
2018-03-29T00:47:57.956Z,103.70
2018-03-29T00:48:31.816Z,100.78
2018-03-29T00:49:05.691Z,88.95
2018-03-29T00:49:39.554Z,98.18
2018-03-29T00:50:13.431Z,95.03
2018-03-29T00:50:47.294Z,108.35
2018-03-29T00:51:21.165Z,102.70
2018-03-29T00:51:55.030Z,101.62
2018-03-29T00:52:29.129Z,107.25
2018-03-29T00:53:08.722Z,101.20
2018-03-29T00:53:44.293Z,100.87
2018-03-29T00:54:18.161Z,108.18
2018-03-29T00:54:52.027Z,111.85
2018-03-29T00:55:25.901Z,110.93
2018-03-29T00:55:59.757Z,103.78
2018-03-29T00:56:33.625Z,116.57
2018-03-29T00:57:07.482Z,109.15
2018-03-29T00:57:41.377Z,96.00
2018-03-29T00:58:15.236Z,112.53
2018-03-29T00:58:49.097Z,101.47
2018-03-29T00:59:22.947Z,100.05
2018-03-29T00:59:56.806Z,113.68
2018-03-29T01:00:30.684Z,93.40
2018-03-29T01:01:04.648Z,93.85
2018-03-29T01:01:38.525Z,88.37
2018-03-29T01:02:12.384Z,82.65
2018-03-29T01:02:46.262Z,97.45
2018-03-29T01:03:20.127Z,94.82
2018-03-29T01:03:53.989Z,87.93
2018-03-29T01:04:27.840Z,79.35
2018-03-29T01:05:01.717Z,85.07
2018-03-29T01:05:35.606Z,81.25
2018-03-29T01:06:09.469Z,86.90
2018-03-29T01:06:43.330Z,94.18
2018-03-29T01:07:17.292Z,84.15
2018-03-29T01:07:51.158Z,88.53
2018-03-29T01:08:25.019Z,81.30
2018-03-29T01:08:58.898Z,90.03
2018-03-29T01:09:32.757Z,97.55
2018-03-29T01:10:06.614Z,89.28
2018-03-29T01:10:40.662Z,85.03
2018-03-29T01:11:14.526Z,79.10
2018-03-29T01:11:48.400Z,85.32
2018-03-29T01:12:22.270Z,83.18
2018-03-29T01:12:56.785Z,95.62
2018-03-29T01:13:30.633Z,90.75
2018-03-29T01:14:04.492Z,87.93
2018-03-29T01:14:38.350Z,85.80
2018-03-29T01:15:12.209Z,88.12
2018-03-29T01:15:46.087Z,89.20
2018-03-29T01:16:19.942Z,90.38
2018-03-29T01:16:53.922Z,91.12
2018-03-29T01:17:27.785Z,94.68
2018-03-29T01:18:01.652Z,93.10
2018-03-29T01:18:35.607Z,87.40
2018-03-29T01:19:09.459Z,95.93
2018-03-29T01:19:43.328Z,101.90
2018-03-29T01:20:17.188Z,85.20
2018-03-29T01:20:51.062Z,86.85
2018-03-29T01:21:24.913Z,85.22
2018-03-29T01:21:58.774Z,88.03
2018-03-29T01:22:32.626Z,96.50
2018-03-29T01:23:06.488Z,91.68
2018-03-29T01:23:40.357Z,92.05
2018-03-29T01:24:14.206Z,86.45
2018-03-29T01:24:48.275Z,96.50
2018-03-29T01:25:22.144Z,89.93
2018-03-29T01:25:56.027Z,77.05
2018-03-29T01:26:29.902Z,90.80
2018-03-29T01:27:03.758Z,95.50
2018-03-29T01:27:37.608Z,99.55
2018-03-29T01:28:11.477Z,99.15
2018-03-29T01:28:45.348Z,93.47
2018-03-29T01:29:19.209Z,97.55
2018-03-29T01:29:53.102Z,94.62
2018-03-29T01:30:26.964Z,99.97
2018-03-29T01:31:00.834Z,91.97
2018-03-29T01:31:34.920Z,92.78
2018-03-29T01:32:08.798Z,93.18
2018-03-29T01:32:42.660Z,79.57
2018-03-29T01:33:16.528Z,98.70
2018-03-29T01:33:50.392Z,115.72
2018-03-29T01:34:24.245Z,97.05
2018-03-29T01:34:58.109Z,91.12
2018-03-29T01:35:32.003Z,103.30
2018-03-29T01:36:05.955Z,88.15
2018-03-29T01:36:39.824Z,97.47
2018-03-29T01:37:13.683Z,96.60
2018-03-29T01:37:47.552Z,98.18
2018-03-29T01:38:21.415Z,96.28
2018-03-29T01:38:55.273Z,93.70
2018-03-29T01:39:29.144Z,95.12
2018-03-29T01:40:03.003Z,86.63
2018-03-29T01:40:36.882Z,99.15
2018-03-29T01:41:10.778Z,102.35
2018-03-29T01:41:44.641Z,96.28
2018-03-29T01:42:18.516Z,101.78
2018-03-29T01:42:52.361Z,95.95
2018-03-29T01:43:26.233Z,107.10
2018-03-29T01:44:00.100Z,92.68
2018-03-29T01:44:33.990Z,104.10
2018-03-29T01:45:07.858Z,114.35
2018-03-29T01:45:41.729Z,107.57
2018-03-29T01:46:15.598Z,93.60
2018-03-29T01:46:49.469Z,104.53
2018-03-29T01:47:23.330Z,112.93
2018-03-29T01:47:57.192Z,105.47
2018-03-29T01:48:31.049Z,102.25
2018-03-29T01:49:04.896Z,92.78
2018-03-29T01:49:38.754Z,96.85
2018-03-29T01:50:12.627Z,103.75
2018-03-29T01:50:46.567Z,107.50
2018-03-29T01:51:20.450Z,109.53
2018-03-29T01:51:54.613Z,101.97
2018-03-29T01:52:28.466Z,100.28
2018-03-29T01:53:02.329Z,113.90
2018-03-29T01:53:36.297Z,107.20
2018-03-29T01:54:10.161Z,109.57
2018-03-29T01:54:44.016Z,104.50
2018-03-29T01:55:17.884Z,111.07
2018-03-29T01:55:51.740Z,103.30
2018-03-29T01:56:25.643Z,105.65
2018-03-29T01:56:59.504Z,119.90
2018-03-29T01:57:33.385Z,121.25
2018-03-29T01:58:07.265Z,109.70
2018-03-29T01:58:41.257Z,104.75
2018-03-29T01:59:15.130Z,119.30
2018-03-29T01:59:49.249Z,131.30
2018-03-29T02:00:23.146Z,112.18
2018-03-29T02:00:57.070Z,132.27
2018-03-29T02:01:30.971Z,151.45
2018-03-29T02:02:04.824Z,118.53
2018-03-29T02:02:38.823Z,129.90
2018-03-29T02:03:12.843Z,111.57
2018-03-29T02:03:46.822Z,123.95
2018-03-29T02:04:20.695Z,108.95
2018-03-29T02:04:54.611Z,144.25
2018-03-29T02:05:28.501Z,120.03
2018-03-29T02:06:02.510Z,106.10
2018-03-29T02:06:36.604Z,104.78
2018-03-29T02:07:10.477Z,117.25
2018-03-29T02:07:44.389Z,120.80
2018-03-29T02:08:18.291Z,119.93
2018-03-29T02:08:52.150Z,113.10
2018-03-29T02:09:26.017Z,117.70
2018-03-29T02:09:59.879Z,123.10
2018-03-29T02:10:33.743Z,128.70
2018-03-29T02:11:07.600Z,127.05
2018-03-29T02:11:41.661Z,121.15
2018-03-29T02:12:15.522Z,140.37
2018-03-29T02:12:49.395Z,126.28
2018-03-29T02:13:23.347Z,130.87
2018-03-29T02:13:57.219Z,126.85
2018-03-29T02:14:31.086Z,118.80
2018-03-29T02:15:05.177Z,125.70
2018-03-29T02:15:39.042Z,124.72
2018-03-29T02:16:12.911Z,134.18
2018-03-29T02:16:47.011Z,126.97
2018-03-29T02:17:20.880Z,128.38
2018-03-29T02:17:54.745Z,136.45
2018-03-29T02:18:28.717Z,128.85
2018-03-29T02:19:02.586Z,124.47
2018-03-29T02:19:36.440Z,116.35
2018-03-29T02:20:10.309Z,120.28
2018-03-29T02:20:44.179Z,126.62
2018-03-29T02:21:18.291Z,113.93
2018-03-29T02:21:52.169Z,120.18
2018-03-29T02:22:26.075Z,107.07
2018-03-29T02:22:59.918Z,124.93
2018-03-29T02:23:33.797Z,117.90
2018-03-29T02:24:07.664Z,112.10
2018-03-29T02:24:41.525Z,116.82
2018-03-29T02:25:15.390Z,126.43
2018-03-29T02:25:49.249Z,119.68
2018-03-29T02:26:23.110Z,124.72
2018-03-29T02:26:56.993Z,108.63
2018-03-29T02:27:30.851Z,118.60
2018-03-29T02:28:04.701Z,125.32
2018-03-29T02:28:38.569Z,119.65
2018-03-29T02:29:12.440Z,125.57
2018-03-29T02:29:46.287Z,117.60
2018-03-29T02:30:20.129Z,119.72
2018-03-29T02:30:54.003Z,122.03
2018-03-29T02:31:27.858Z,114.85
2018-03-29T02:32:01.734Z,116.93
2018-03-29T02:32:35.602Z,117.35
2018-03-29T02:33:09.465Z,120.05
2018-03-29T02:33:43.336Z,119.13
2018-03-29T02:34:17.277Z,125.62
2018-03-29T02:34:51.137Z,118.90
2018-03-29T02:35:25.198Z,119.20
2018-03-29T02:35:59.050Z,115.12
2018-03-29T02:36:33.029Z,112.30
2018-03-29T02:37:07.169Z,132.00
2018-03-29T02:37:41.052Z,126.82
2018-03-29T02:38:14.985Z,121.15
2018-03-29T02:38:48.944Z,122.60
2018-03-29T02:39:22.805Z,131.32
2018-03-29T02:39:56.958Z,123.35
2018-03-29T02:40:30.824Z,118.85
2018-03-29T02:41:04.734Z,121.85
2018-03-29T02:41:38.729Z,119.28
2018-03-29T02:42:12.603Z,115.55
2018-03-29T02:42:46.461Z,113.62
2018-03-29T02:43:20.326Z,125.12
2018-03-29T02:43:54.721Z,117.60
2018-03-29T02:44:28.719Z,126.53
2018-03-29T02:45:02.734Z,137.57
2018-03-29T02:45:36.600Z,112.43
2018-03-29T02:46:10.467Z,107.55
2018-03-29T02:46:44.339Z,118.78
2018-03-29T02:47:18.222Z,116.97
2018-03-29T02:47:52.113Z,123.80
2018-03-29T02:48:25.976Z,118.70
2018-03-29T02:48:59.897Z,121.93
2018-03-29T02:49:33.770Z,117.20
2018-03-29T02:50:07.784Z,116.18
2018-03-29T02:50:41.655Z,116.68
2018-03-29T02:51:15.673Z,119.87
2018-03-29T02:51:49.533Z,109.65
2018-03-29T02:52:23.590Z,107.37
2018-03-29T02:52:57.450Z,115.88
2018-03-29T02:53:31.312Z,123.38
2018-03-29T02:54:05.179Z,114.22
2018-03-29T02:54:39.138Z,124.03
2018-03-29T02:55:13.012Z,116.45
2018-03-29T02:55:46.874Z,114.90
2018-03-29T02:56:20.827Z,110.20
2018-03-29T02:56:54.820Z,121.62
2018-03-29T02:57:28.762Z,107.15
2018-03-29T02:58:02.724Z,99.00
2018-03-29T02:58:36.609Z,98.45
2018-03-29T02:59:10.817Z,107.25
2018-03-29T02:59:44.710Z,97.85
2018-03-29T03:00:18.704Z,83.80
2018-03-29T03:00:52.606Z,108.03
2018-03-29T03:01:26.599Z,97.93
2018-03-29T03:02:00.537Z,95.22
2018-03-29T03:02:34.434Z,84.07
2018-03-29T03:03:08.597Z,83.32
2018-03-29T03:03:42.462Z,84.60
2018-03-29T03:04:16.337Z,83.25
2018-03-29T03:04:50.483Z,74.68
2018-03-29T03:05:24.377Z,79.47
2018-03-29T03:05:58.228Z,74.60
2018-03-29T03:06:32.086Z,77.00
2018-03-29T03:07:05.953Z,76.75
2018-03-29T03:07:39.831Z,69.68
2018-03-29T03:08:13.707Z,76.00
2018-03-29T03:08:47.572Z,85.60
2018-03-29T03:09:21.434Z,78.95
2018-03-29T03:09:55.355Z,76.30
2018-03-29T03:10:29.244Z,76.50
2018-03-29T03:11:03.113Z,74.60
2018-03-29T03:11:37.158Z,78.90
2018-03-29T03:12:11.027Z,66.95
2018-03-29T03:12:45.119Z,72.28
2018-03-29T03:13:19.255Z,66.53
2018-03-29T03:13:53.628Z,68.87
2018-03-29T03:14:27.496Z,69.75
2018-03-29T03:15:01.437Z,66.40
2018-03-29T03:15:35.302Z,72.47
2018-03-29T03:16:09.159Z,64.30
2018-03-29T03:16:43.112Z,63.97
2018-03-29T03:17:17.005Z,60.42
2018-03-29T03:17:51.024Z,58.87
2018-03-29T03:18:24.879Z,65.25
2018-03-29T03:18:59.112Z,53.15
2018-03-29T03:19:32.973Z,61.67
2018-03-29T03:20:06.830Z,59.97
2018-03-29T03:20:40.706Z,60.03
2018-03-29T03:21:14.678Z,52.65
2018-03-29T03:21:48.549Z,54.05
2018-03-29T03:22:22.468Z,47.55
2018-03-29T03:22:56.420Z,52.65
2018-03-29T03:23:30.279Z,47.95
2018-03-29T03:24:04.360Z,46.90
2018-03-29T03:24:38.356Z,49.78
2018-03-29T03:25:12.229Z,45.90
2018-03-29T03:25:46.144Z,43.10
2018-03-29T03:26:20.024Z,40.28
2018-03-29T03:26:53.898Z,42.53
2018-03-29T03:27:27.948Z,45.05
2018-03-29T03:28:01.944Z,42.28
2018-03-29T03:28:35.825Z,37.38
2018-03-29T03:29:09.681Z,47.10
2018-03-29T03:29:43.548Z,35.60
2018-03-29T03:30:17.411Z,39.40
2018-03-29T03:30:51.510Z,40.45
2018-03-29T03:31:25.366Z,39.83
2018-03-29T03:31:59.235Z,38.83
2018-03-29T03:32:33.409Z,40.25
2018-03-29T03:33:07.394Z,38.30
2018-03-29T03:33:41.269Z,37.80
2018-03-29T03:34:15.129Z,36.75
2018-03-29T03:34:49.210Z,38.75
2018-03-29T03:35:23.064Z,34.10
2018-03-29T03:35:57.801Z,32.35
2018-03-29T03:36:31.696Z,36.92
2018-03-29T03:37:05.591Z,36.75
2018-03-29T03:37:39.586Z,32.83
2018-03-29T03:38:13.483Z,33.13
2018-03-29T03:38:47.336Z,31.67
2018-03-29T03:39:21.277Z,31.35
2018-03-29T03:39:55.281Z,32.40
2018-03-29T03:40:29.305Z,31.05
2018-03-29T03:41:03.176Z,32.60
2018-03-29T03:41:37.060Z,32.05
2018-03-29T03:42:10.932Z,33.70
2018-03-29T03:42:44.981Z,34.03
2018-03-29T03:43:19.060Z,35.90
2018-03-29T03:43:52.925Z,32.03
2018-03-29T03:44:26.782Z,32.58
2018-03-29T03:45:00.645Z,28.90
2018-03-29T03:45:34.550Z,34.20
2018-03-29T03:46:08.420Z,28.73
2018-03-29T03:46:42.281Z,30.45
2018-03-29T03:47:16.431Z,31.60
2018-03-29T03:47:50.416Z,31.95
2018-03-29T03:48:24.317Z,33.08
2018-03-29T03:48:58.184Z,30.55
2018-03-29T03:49:32.106Z,29.10
2018-03-29T03:50:06.107Z,30.40
2018-03-29T03:50:39.982Z,29.92
2018-03-29T03:51:14.076Z,30.67
2018-03-29T03:51:48.036Z,31.95
2018-03-29T03:52:22.097Z,30.83
2018-03-29T03:52:55.965Z,31.45
2018-03-29T03:53:29.836Z,28.48
2018-03-29T03:54:03.697Z,31.85
2018-03-29T03:54:37.557Z,30.40
2018-03-29T03:55:11.452Z,29.50
2018-03-29T03:55:45.332Z,30.17
2018-03-29T03:56:19.567Z,32.63
2018-03-29T03:56:53.560Z,30.40
2018-03-29T03:57:27.422Z,32.33
2018-03-29T03:58:01.571Z,30.55
2018-03-29T03:58:35.476Z,29.83
2018-03-29T03:59:09.357Z,31.25
2018-03-29T03:59:43.253Z,30.83
2018-03-29T04:00:17.144Z,29.55
2018-03-29T04:00:51.012Z,33.85
2018-03-29T04:01:25.046Z,31.90
2018-03-29T04:01:58.958Z,28.10
2018-03-29T04:02:32.821Z,30.33
2018-03-29T04:03:06.819Z,28.98
2018-03-29T04:03:40.928Z,31.12
2018-03-29T04:04:14.780Z,31.20
2018-03-29T04:04:48.741Z,29.37
2018-03-29T04:05:22.612Z,29.80
2018-03-29T04:05:56.822Z,28.60
2018-03-29T04:06:30.712Z,30.92
2018-03-29T04:07:04.573Z,29.55
2018-03-29T04:07:38.517Z,29.42
2018-03-29T04:08:12.495Z,29.40
2018-03-29T04:08:46.360Z,26.52
2018-03-29T04:09:20.303Z,25.50
2018-03-29T04:09:54.161Z,29.50
2018-03-29T04:10:28.023Z,23.05
2018-03-29T04:11:01.882Z,28.35
2018-03-29T04:11:35.760Z,25.73
2018-03-29T04:12:09.622Z,26.80
2018-03-29T04:12:43.490Z,24.08
2018-03-29T04:13:17.437Z,25.70
2018-03-29T04:13:51.340Z,27.37
2018-03-29T04:14:25.213Z,25.60
2018-03-29T04:14:59.089Z,27.60
2018-03-29T04:15:32.988Z,29.98
2018-03-29T04:16:06.931Z,24.08
2018-03-29T04:16:40.845Z,26.52
2018-03-29T04:17:14.705Z,25.00
2018-03-29T04:17:48.560Z,26.08
2018-03-29T04:18:22.429Z,28.80
2018-03-29T04:18:56.333Z,25.00
2018-03-29T04:19:30.545Z,25.85
2018-03-29T04:20:04.508Z,26.62
2018-03-29T04:20:38.376Z,26.90
2018-03-29T04:21:12.311Z,27.87
2018-03-29T04:21:46.174Z,25.35
2018-03-29T04:22:20.030Z,27.40
2018-03-29T04:22:54.178Z,25.90
2018-03-29T04:23:28.043Z,24.70
2018-03-29T04:24:01.920Z,26.10
2018-03-29T04:24:35.863Z,25.08
2018-03-29T04:25:09.858Z,26.35
2018-03-29T04:25:43.742Z,22.45
2018-03-29T04:26:17.652Z,23.87
2018-03-29T04:26:51.520Z,24.15
2018-03-29T04:27:25.381Z,26.15
2018-03-29T04:27:59.297Z,23.30
2018-03-29T04:28:33.253Z,22.23
2018-03-29T04:29:07.437Z,23.33
2018-03-29T04:29:41.290Z,23.77
2018-03-29T04:30:15.173Z,22.25
2018-03-29T04:30:49.237Z,24.58
2018-03-29T04:31:23.118Z,23.60
2018-03-29T04:31:56.989Z,23.75
2018-03-29T04:32:31.026Z,22.95
2018-03-29T04:33:05.030Z,26.60
2018-03-29T04:33:38.892Z,24.30
2018-03-29T04:34:12.765Z,23.25
2018-03-29T04:34:46.624Z,22.62
2018-03-29T04:35:20.563Z,23.08
2018-03-29T04:35:54.392Z,21.60
2018-03-29T04:36:28.253Z,22.20
2018-03-29T04:37:02.131Z,21.50
2018-03-29T04:37:36.179Z,20.08
2018-03-29T04:38:10.172Z,21.25
2018-03-29T04:38:44.023Z,22.30
2018-03-29T04:39:18.232Z,20.12
2018-03-29T04:39:52.200Z,22.65
2018-03-29T04:40:26.065Z,21.58
2018-03-29T04:41:00.065Z,22.00
2018-03-29T04:41:33.932Z,20.83
2018-03-29T04:42:07.794Z,20.00
2018-03-29T04:42:41.962Z,23.08
2018-03-29T04:43:15.845Z,21.87
2018-03-29T04:43:49.954Z,19.37
2018-03-29T04:44:23.941Z,20.88
2018-03-29T04:44:57.814Z,21.65
2018-03-29T04:45:31.697Z,22.62
2018-03-29T04:46:05.598Z,22.40
2018-03-29T04:46:39.529Z,21.08
2018-03-29T04:47:13.419Z,18.55
2018-03-29T04:47:47.417Z,19.00
2018-03-29T04:48:21.290Z,19.60
2018-03-29T04:48:55.160Z,16.15
2018-03-29T04:49:29.036Z,20.48
2018-03-29T04:50:02.897Z,17.65
2018-03-29T04:50:36.792Z,17.25
2018-03-29T04:51:10.648Z,17.50
2018-03-29T04:51:44.517Z,17.70
2018-03-29T04:52:18.412Z,19.77
2018-03-29T04:52:52.277Z,17.23
2018-03-29T04:53:26.145Z,17.95
2018-03-29T04:54:00.103Z,16.23
2018-03-29T04:54:33.985Z,19.92
2018-03-29T04:55:07.837Z,17.37
2018-03-29T04:55:41.702Z,19.02
2018-03-29T04:56:15.581Z,23.33
2018-03-29T04:56:49.440Z,17.50
2018-03-29T04:57:23.318Z,16.08
2018-03-29T04:57:57.328Z,19.10
2018-03-29T04:58:31.197Z,17.70
2018-03-29T04:59:05.138Z,18.15
2018-03-29T04:59:39.023Z,16.75
2018-03-29T05:00:12.922Z,15.25
2018-03-29T05:00:46.780Z,16.48
2018-03-29T05:01:20.739Z,15.15
2018-03-29T05:01:54.585Z,14.68
2018-03-29T05:02:28.446Z,16.37
2018-03-29T05:03:02.314Z,16.65
2018-03-29T05:03:36.184Z,18.85
2018-03-29T05:04:10.167Z,17.15
2018-03-29T05:04:44.036Z,19.58
2018-03-29T05:05:18.525Z,16.42
2018-03-29T05:05:52.578Z,16.35
2018-03-29T05:06:26.446Z,15.77
2018-03-29T05:07:00.314Z,18.15
2018-03-29T05:07:34.505Z,14.20
2018-03-29T05:08:08.511Z,16.65
2018-03-29T05:08:42.481Z,15.40
2018-03-29T05:09:16.356Z,14.68
2018-03-29T05:09:50.236Z,13.30
2018-03-29T05:10:24.279Z,14.45
2018-03-29T05:10:58.160Z,16.42
2018-03-29T05:11:32.085Z,14.87
2018-03-29T05:12:06.628Z,16.00
2018-03-29T05:12:40.489Z,13.50
2018-03-29T05:13:14.383Z,14.57
2018-03-29T05:13:48.225Z,14.93
2018-03-29T05:14:22.109Z,14.40
2018-03-29T05:14:55.993Z,14.85
2018-03-29T05:15:29.846Z,17.60
2018-03-29T05:16:03.926Z,16.70
2018-03-29T05:16:37.788Z,16.17
2018-03-29T05:17:11.645Z,13.25
2018-03-29T05:17:45.540Z,13.23
2018-03-29T05:18:19.465Z,15.48
2018-03-29T05:18:53.338Z,13.62
2018-03-29T05:19:27.197Z,15.15
2018-03-29T05:20:01.080Z,15.32
2018-03-29T05:20:34.941Z,14.68
2018-03-29T05:21:08.849Z,14.52
2018-03-29T05:21:42.730Z,14.07
2018-03-29T05:22:16.588Z,13.48
2018-03-29T05:22:50.463Z,14.35
2018-03-29T05:23:24.320Z,15.98
2018-03-29T05:23:58.251Z,13.93
2018-03-29T05:24:32.108Z,12.05
2018-03-29T05:25:05.984Z,11.73
2018-03-29T05:25:39.946Z,10.65
2018-03-29T05:26:13.811Z,10.50
2018-03-29T05:26:49.673Z,8.80
2018-03-29T05:27:25.465Z,10.43
2018-03-29T05:27:59.337Z,8.35
2018-03-29T05:28:33.204Z,10.98
2018-03-29T05:29:07.073Z,8.40
2018-03-29T05:29:41.092Z,9.18
2018-03-29T05:30:14.982Z,9.40
2018-03-29T05:30:48.854Z,8.45
2018-03-29T05:31:22.779Z,8.95
2018-03-29T05:31:56.637Z,8.23
2018-03-29T05:32:30.506Z,9.77
2018-03-29T05:33:04.372Z,8.00
2018-03-29T05:33:38.240Z,8.88
2018-03-29T05:34:12.365Z,9.55
2018-03-29T05:34:46.262Z,8.35
2018-03-29T05:35:20.127Z,8.10
2018-03-29T05:35:53.993Z,9.75
2018-03-29T05:36:27.841Z,9.23
2018-03-29T05:37:01.832Z,9.43
2018-03-29T05:37:36.041Z,7.85
2018-03-29T05:38:09.924Z,11.05
2018-03-29T05:38:43.778Z,9.25
2018-03-29T05:39:17.723Z,9.43
2018-03-29T05:39:51.580Z,9.65
2018-03-29T05:40:25.514Z,8.00
2018-03-29T05:40:59.382Z,8.70
2018-03-29T05:41:33.253Z,7.32
2018-03-29T05:42:09.337Z,7.05
2018-03-29T05:42:43.197Z,8.10
2018-03-29T05:43:17.046Z,9.35
2018-03-29T05:43:50.910Z,7.05
2018-03-29T05:44:24.805Z,13.07
2018-03-29T05:44:58.669Z,6.35
2018-03-29T05:45:32.567Z,9.30
2018-03-29T05:46:06.440Z,8.30
2018-03-29T05:46:40.410Z,6.90
2018-03-29T05:47:14.285Z,7.95
2018-03-29T05:47:48.142Z,6.90
2018-03-29T05:48:22.009Z,9.65
2018-03-29T05:48:55.894Z,7.60
2018-03-29T05:49:29.749Z,9.00
2018-03-29T05:50:03.624Z,8.38
2018-03-29T05:50:37.577Z,7.75
2018-03-29T05:51:11.448Z,8.20
2018-03-29T05:51:45.316Z,7.47
2018-03-29T05:52:19.198Z,7.65
2018-03-29T05:52:53.064Z,7.47
2018-03-29T05:53:26.927Z,7.53
2018-03-29T05:54:00.789Z,8.25
2018-03-29T05:54:34.647Z,7.15
2018-03-29T05:55:08.519Z,15.98
2018-03-29T05:55:42.551Z,7.78
2018-03-29T05:56:16.544Z,10.20
2018-03-29T05:56:50.414Z,11.95
2018-03-29T05:57:24.420Z,9.90
2018-03-29T05:57:58.553Z,8.07
2018-03-29T05:58:32.495Z,8.63
2018-03-29T05:59:06.545Z,7.22
2018-03-29T05:59:40.725Z,6.87
2018-03-29T06:00:14.648Z,8.00
2018-03-29T06:00:48.537Z,7.93
2018-03-29T06:01:22.417Z,10.25
2018-03-29T06:01:56.288Z,8.07
2018-03-29T06:02:30.167Z,7.95
2018-03-29T06:03:04.191Z,7.47
2018-03-29T06:03:37.968Z,7.65
2018-03-29T06:04:11.827Z,8.88
2018-03-29T06:04:45.686Z,7.32
2018-03-29T06:05:19.539Z,7.05
2018-03-29T06:05:53.446Z,8.95
2018-03-29T06:06:27.304Z,7.87
2018-03-29T06:07:01.171Z,9.02
2018-03-29T06:07:35.029Z,8.70
2018-03-29T06:08:08.885Z,9.30
2018-03-29T06:08:42.882Z,7.95
2018-03-29T06:09:16.754Z,8.38
2018-03-29T06:09:50.618Z,7.97
2018-03-29T06:10:24.627Z,8.07
2018-03-29T06:10:58.542Z,7.18
2018-03-29T06:11:32.370Z,7.93
2018-03-29T06:12:06.250Z,6.25
2018-03-29T06:12:40.141Z,6.40
2018-03-29T06:13:14.134Z,6.62
2018-03-29T06:13:53.692Z,6.32
2018-03-29T06:14:33.344Z,6.18
2018-03-29T06:15:13.033Z,6.20
2018-03-29T06:15:46.889Z,9.85
2018-03-29T06:16:20.788Z,7.25
2018-03-29T06:16:54.686Z,8.82
2018-03-29T06:17:28.539Z,7.55
2018-03-29T06:18:02.400Z,6.78
2018-03-29T06:18:36.375Z,7.05
2018-03-29T06:19:10.235Z,8.45
2018-03-29T06:19:44.265Z,8.50
2018-03-29T06:20:18.114Z,6.30
2018-03-29T06:20:51.968Z,8.68
2018-03-29T06:21:26.057Z,7.37
2018-03-29T06:21:59.949Z,9.50
2018-03-29T06:22:33.817Z,6.53
2018-03-29T06:23:07.742Z,6.85
2018-03-29T06:23:41.586Z,8.35
2018-03-29T06:24:15.506Z,7.55
2018-03-29T06:24:49.362Z,7.30
2018-03-29T06:25:23.216Z,11.32
2018-03-29T06:25:57.075Z,7.75
2018-03-29T06:26:31.414Z,6.55
2018-03-29T06:27:05.512Z,7.32
2018-03-29T06:27:39.507Z,6.97
2018-03-29T06:28:13.359Z,7.03
2018-03-29T06:28:47.413Z,7.18
2018-03-29T06:29:21.362Z,8.10
2018-03-29T06:29:55.221Z,6.85
2018-03-29T06:30:29.175Z,8.13
2018-03-29T06:31:03.215Z,8.65
2018-03-29T06:31:37.392Z,7.78
2018-03-29T06:32:11.246Z,6.87
2018-03-29T06:32:45.283Z,6.32
2018-03-29T06:33:19.385Z,6.72
2018-03-29T06:33:53.794Z,5.75
2018-03-29T06:34:27.676Z,6.12
2018-03-29T06:35:01.548Z,5.78
2018-03-29T06:35:35.422Z,6.37
2018-03-29T06:36:09.293Z,5.30
2018-03-29T06:36:43.170Z,6.65
2018-03-29T06:37:17.041Z,5.05
2018-03-29T06:37:50.924Z,5.97
2018-03-29T06:38:24.892Z,6.30
2018-03-29T06:38:58.974Z,5.78
2018-03-29T06:39:32.969Z,6.37
2018-03-29T06:40:06.820Z,7.43
2018-03-29T06:40:40.705Z,7.07
2018-03-29T06:41:14.580Z,5.60
2018-03-29T06:41:48.632Z,6.22
2018-03-29T06:42:22.530Z,5.65
2018-03-29T06:42:56.380Z,6.53
2018-03-29T06:43:30.322Z,7.32
2018-03-29T06:44:04.197Z,6.10
2018-03-29T06:44:38.348Z,5.30
2018-03-29T06:45:12.317Z,7.07
2018-03-29T06:45:46.190Z,6.18
2018-03-29T06:46:20.089Z,7.35
2018-03-29T06:46:54.018Z,5.80
2018-03-29T06:47:28.000Z,5.37
2018-03-29T06:48:02.097Z,5.80
2018-03-29T06:48:35.981Z,5.60
2018-03-29T06:49:09.834Z,5.85
2018-03-29T06:49:43.882Z,5.70
2018-03-29T06:50:17.782Z,5.35
2018-03-29T06:50:51.653Z,6.45
2018-03-29T06:51:25.517Z,4.97
2018-03-29T06:51:59.381Z,7.30
2018-03-29T06:52:33.218Z,5.87
2018-03-29T06:53:07.071Z,6.15
2018-03-29T06:53:40.926Z,6.55
2018-03-29T06:54:14.783Z,5.05
2018-03-29T06:54:48.657Z,6.32
2018-03-29T06:55:22.507Z,5.05
2018-03-29T06:55:56.631Z,6.25
2018-03-29T06:56:30.484Z,5.10
2018-03-29T06:57:04.421Z,5.15
2018-03-29T06:57:38.528Z,5.62
2018-03-29T06:58:12.607Z,4.85
2018-03-29T06:58:46.462Z,5.55
2018-03-29T06:59:20.320Z,5.53
2018-03-29T06:59:54.178Z,5.65
2018-03-29T07:00:28.046Z,4.72
2018-03-29T07:01:01.991Z,4.30
2018-03-29T07:01:35.773Z,5.00
2018-03-29T07:02:09.654Z,4.80
2018-03-29T07:02:43.518Z,5.18
2018-03-29T07:03:17.438Z,5.68
2018-03-29T07:03:51.351Z,5.28
2018-03-29T07:04:25.234Z,5.45
2018-03-29T07:04:59.101Z,4.65
2018-03-29T07:05:32.990Z,4.07
2018-03-29T07:06:06.859Z,4.78
2018-03-29T07:06:41.109Z,6.10
2018-03-29T07:07:15.269Z,4.55
2018-03-29T07:07:49.153Z,6.10
2018-03-29T07:08:23.044Z,4.72
2018-03-29T07:08:57.060Z,4.62
2018-03-29T07:09:30.920Z,4.80
2018-03-29T07:10:05.037Z,4.53
2018-03-29T07:10:39.042Z,4.93
2018-03-29T07:11:12.921Z,4.78
2018-03-29T07:11:46.819Z,4.90
2018-03-29T07:12:20.754Z,4.80
2018-03-29T07:12:54.617Z,5.12
2018-03-29T07:13:28.498Z,5.37
2018-03-29T07:14:02.368Z,4.85
2018-03-29T07:14:36.271Z,5.20
2018-03-29T07:15:10.162Z,5.62
2018-03-29T07:15:44.033Z,4.90
2018-03-29T07:16:17.904Z,4.53
2018-03-29T07:16:51.762Z,5.18
2018-03-29T07:17:25.883Z,5.57